createdAt,value
2019-01-04T00:00:58.893Z,1031.35
2019-01-04T00:01:58.851Z,1031.31
2019-01-04T00:02:58.821Z,1031.33
2019-01-04T00:03:58.801Z,1031.32
2019-01-04T00:04:58.765Z,1031.32
2019-01-04T00:05:58.743Z,1031.32
2019-01-04T00:06:58.717Z,1031.29
2019-01-04T00:07:58.689Z,1031.28
2019-01-04T00:08:58.659Z,1031.29
2019-01-04T00:09:58.634Z,1031.28
2019-01-04T00:10:58.610Z,1031.31
2019-01-04T00:11:58.597Z,1031.27
2019-01-04T00:12:58.551Z,1031.28
2019-01-04T00:13:58.669Z,1031.25
2019-01-04T00:14:58.498Z,1031.21
2019-01-04T00:15:58.478Z,1031.21
2019-01-04T00:16:58.444Z,1031.22
2019-01-04T00:17:58.419Z,1031.22
2019-01-04T00:18:58.395Z,1031.19
2019-01-04T00:19:58.366Z,1031.17
2019-01-04T00:20:58.336Z,1031.17
2019-01-04T00:21:58.307Z,1031.16
2019-01-04T00:22:58.284Z,1031.10
2019-01-04T00:23:58.255Z,1031.14
2019-01-04T00:24:58.228Z,1031.11
2019-01-04T00:25:58.201Z,1031.15
2019-01-04T00:26:58.296Z,1031.14
2019-01-04T00:27:58.145Z,1031.10
2019-01-04T00:28:58.175Z,1031.09
2019-01-04T00:29:58.094Z,1031.06
2019-01-04T00:30:58.063Z,1031.06
2019-01-04T00:31:58.045Z,1031.07
2019-01-04T00:32:58.010Z,1031.06
2019-01-04T00:33:57.983Z,1031.11
2019-01-04T00:34:57.959Z,1031.07
2019-01-04T00:35:57.930Z,1031.10
2019-01-04T00:36:57.902Z,1031.04
2019-01-04T00:37:57.874Z,1031.04
2019-01-04T00:38:57.850Z,1031.05
2019-01-04T00:39:57.826Z,1031.12
2019-01-04T00:40:57.793Z,1031.11
2019-01-04T00:41:57.765Z,1031.06
2019-01-04T00:42:57.748Z,1031.07
2019-01-04T00:43:57.713Z,1031.03
2019-01-04T00:44:57.689Z,1031.04
2019-01-04T00:45:57.656Z,1031.08
2019-01-04T00:46:57.631Z,1031.07
2019-01-04T00:47:57.601Z,1031.11
2019-01-04T00:48:57.573Z,1031.11
2019-01-04T00:49:57.549Z,1031.08
2019-01-04T00:50:57.520Z,1031.02
2019-01-04T00:51:57.500Z,1031.05
2019-01-04T00:52:57.465Z,1031.08
2019-01-04T00:53:57.442Z,1031.04
2019-01-04T00:54:57.415Z,1031.06
2019-01-04T00:55:57.383Z,1031.10
2019-01-04T00:56:57.362Z,1031.08
2019-01-04T00:57:57.332Z,1031.08
2019-01-04T00:58:57.301Z,1031.12
2019-01-04T00:59:57.281Z,1031.06
2019-01-04T01:00:57.259Z,1031.02
2019-01-04T01:01:57.220Z,1030.98
2019-01-04T01:02:57.192Z,1031.03
2019-01-04T01:03:57.171Z,1031.00
2019-01-04T01:04:57.202Z,1030.98
2019-01-04T01:05:57.113Z,1031.00
2019-01-04T01:06:57.084Z,1031.07
2019-01-04T01:07:57.055Z,1031.08
2019-01-04T01:08:57.037Z,1031.09
2019-01-04T01:09:57.007Z,1031.10
2019-01-04T01:10:56.975Z,1031.15
2019-01-04T01:11:56.948Z,1031.22
2019-01-04T01:12:56.926Z,1031.24
2019-01-04T01:13:56.897Z,1031.27
2019-01-04T01:14:56.884Z,1031.26
2019-01-04T01:15:56.841Z,1031.30
2019-01-04T01:16:56.808Z,1031.28
2019-01-04T01:17:56.787Z,1031.27
2019-01-04T01:18:56.765Z,1031.27
2019-01-04T01:19:56.725Z,1031.29
2019-01-04T01:20:56.704Z,1031.23
2019-01-04T01:21:56.672Z,1031.24
2019-01-04T01:22:56.645Z,1031.23
2019-01-04T01:23:56.618Z,1031.26
2019-01-04T01:24:56.589Z,1031.29
2019-01-04T01:25:56.563Z,1031.25
2019-01-04T01:26:56.535Z,1031.23
2019-01-04T01:27:56.508Z,1031.28
2019-01-04T01:28:56.483Z,1031.24
2019-01-04T01:29:56.457Z,1031.27
2019-01-04T01:30:56.432Z,1031.24
2019-01-04T01:31:56.396Z,1031.25
2019-01-04T01:32:56.372Z,1031.27
2019-01-04T01:33:56.343Z,1031.33
2019-01-04T01:34:56.320Z,1031.32
2019-01-04T01:35:56.288Z,1031.34
2019-01-04T01:36:56.264Z,1031.34
2019-01-04T01:37:56.233Z,1031.38
2019-01-04T01:38:56.210Z,1031.39
2019-01-04T01:39:56.181Z,1031.40
2019-01-04T01:40:56.151Z,1031.42
2019-01-04T01:41:56.130Z,1031.45
2019-01-04T01:42:56.099Z,1031.44
2019-01-04T01:43:56.071Z,1031.50
2019-01-04T01:44:56.043Z,1031.51
2019-01-04T01:45:56.018Z,1031.54
2019-01-04T01:46:55.986Z,1031.49
2019-01-04T01:47:55.961Z,1031.48
2019-01-04T01:48:55.934Z,1031.42
2019-01-04T01:49:55.910Z,1031.33
2019-01-04T01:50:55.879Z,1031.34
2019-01-04T01:51:55.851Z,1031.31
2019-01-04T01:52:55.824Z,1031.30
2019-01-04T01:53:55.795Z,1031.24
2019-01-04T01:54:55.770Z,1031.25
2019-01-04T01:55:55.741Z,1031.21
2019-01-04T01:56:55.715Z,1031.16
2019-01-04T01:57:55.686Z,1031.10
2019-01-04T01:58:55.704Z,1031.13
2019-01-04T01:59:55.633Z,1031.09
2019-01-04T02:00:55.603Z,1031.14
2019-01-04T02:01:55.577Z,1031.08
2019-01-04T02:02:55.566Z,1031.09
2019-01-04T02:03:55.525Z,1031.05
2019-01-04T02:04:55.495Z,1031.05
2019-01-04T02:05:55.466Z,1031.05
2019-01-04T02:06:55.438Z,1031.06
2019-01-04T02:07:55.416Z,1031.05
2019-01-04T02:08:55.383Z,1031.07
2019-01-04T02:09:55.362Z,1031.14
2019-01-04T02:10:55.329Z,1031.12
2019-01-04T02:11:55.302Z,1031.12
2019-01-04T02:12:55.274Z,1031.10
2019-01-04T02:13:55.246Z,1031.13
2019-01-04T02:14:55.242Z,1031.14
2019-01-04T02:15:55.192Z,1031.17
2019-01-04T02:16:55.166Z,1031.16
2019-01-04T02:17:55.139Z,1031.17
2019-01-04T02:18:55.111Z,1031.17
2019-01-04T02:19:55.082Z,1031.20
2019-01-04T02:20:55.057Z,1031.20
2019-01-04T02:21:55.045Z,1031.18
2019-01-04T02:22:54.999Z,1031.12
2019-01-04T02:23:54.973Z,1031.13
2019-01-04T02:24:54.945Z,1031.15
2019-01-04T02:25:54.922Z,1031.09
2019-01-04T02:26:54.889Z,1031.09
2019-01-04T02:27:54.862Z,1031.07
2019-01-04T02:28:54.833Z,1031.10
2019-01-04T02:29:54.808Z,1031.09
2019-01-04T02:30:54.781Z,1031.09
2019-01-04T02:31:54.753Z,1031.12
2019-01-04T02:32:54.730Z,1031.15
2019-01-04T02:33:54.699Z,1031.06
2019-01-04T02:34:54.670Z,1031.09
2019-01-04T02:35:54.642Z,1031.11
2019-01-04T02:36:54.622Z,1031.16
2019-01-04T02:37:54.586Z,1031.13
2019-01-04T02:38:54.559Z,1031.14
2019-01-04T02:39:54.536Z,1031.14
2019-01-04T02:40:54.503Z,1031.17
2019-01-04T02:41:54.477Z,1031.13
2019-01-04T02:42:54.476Z,1031.16
2019-01-04T02:43:54.421Z,1031.17
2019-01-04T02:44:54.396Z,1031.16
2019-01-04T02:45:54.366Z,1031.20
2019-01-04T02:46:54.340Z,1031.18
2019-01-04T02:47:54.312Z,1031.22
2019-01-04T02:48:54.284Z,1031.24
2019-01-04T02:49:54.254Z,1031.20
2019-01-04T02:50:54.226Z,1031.19
2019-01-04T02:51:54.208Z,1031.21
2019-01-04T02:52:54.170Z,1031.27
2019-01-04T02:53:54.147Z,1031.27
2019-01-04T02:54:54.116Z,1031.28
2019-01-04T02:55:54.087Z,1031.30
2019-01-04T02:56:54.062Z,1031.27
2019-01-04T02:57:54.035Z,1031.27
2019-01-04T02:58:54.003Z,1031.24
2019-01-04T02:59:53.976Z,1031.25
2019-01-04T03:00:53.969Z,1031.23
2019-01-04T03:01:53.924Z,1031.28
2019-01-04T03:02:53.894Z,1031.26
2019-01-04T03:03:53.868Z,1031.25
2019-01-04T03:04:53.839Z,1031.28
2019-01-04T03:05:53.810Z,1031.34
2019-01-04T03:06:53.785Z,1031.36
2019-01-04T03:07:53.755Z,1031.30
2019-01-04T03:08:53.729Z,1031.30
2019-01-04T03:09:53.698Z,1031.26
2019-01-04T03:10:53.676Z,1031.23
2019-01-04T03:11:53.648Z,1031.19
2019-01-04T03:12:53.616Z,1031.18
2019-01-04T03:13:53.589Z,1031.15
2019-01-04T03:14:53.562Z,1031.15
2019-01-04T03:15:53.535Z,1031.09
2019-01-04T03:16:53.510Z,1031.12
2019-01-04T03:17:53.502Z,1031.10
2019-01-04T03:18:53.454Z,1031.08
2019-01-04T03:19:53.422Z,1031.06
2019-01-04T03:20:53.395Z,1031.06
2019-01-04T03:21:53.367Z,1031.04
2019-01-04T03:22:53.340Z,1031.06
2019-01-04T03:23:53.312Z,1031.05
2019-01-04T03:24:53.284Z,1031.06
2019-01-04T03:25:53.255Z,1031.04
2019-01-04T03:26:53.233Z,1031.03
2019-01-04T03:27:53.199Z,1031.08
2019-01-04T03:28:53.173Z,1031.01
2019-01-04T03:29:53.146Z,1031.02
2019-01-04T03:30:54.350Z,1030.99
2019-01-04T03:31:53.106Z,1030.96
2019-01-04T03:32:53.062Z,1030.93
2019-01-04T03:33:53.036Z,1030.89
2019-01-04T03:34:53.006Z,1030.87
2019-01-04T03:35:52.982Z,1030.83
2019-01-04T03:36:52.949Z,1030.80
2019-01-04T03:37:52.923Z,1030.77
2019-01-04T03:38:52.898Z,1030.79
2019-01-04T03:39:52.866Z,1030.75
2019-01-04T03:40:52.843Z,1030.73
2019-01-04T03:41:52.812Z,1030.70
2019-01-04T03:42:52.786Z,1030.69
2019-01-04T03:43:52.772Z,1030.72
2019-01-04T03:44:52.728Z,1030.71
2019-01-04T03:45:52.712Z,1030.63
2019-01-04T03:46:52.677Z,1030.55
2019-01-04T03:47:52.651Z,1030.48
2019-01-04T03:48:52.618Z,1030.48
2019-01-04T03:49:52.593Z,1030.49
2019-01-04T03:50:52.566Z,1030.48
2019-01-04T03:51:52.546Z,1030.44
2019-01-04T03:52:52.509Z,1030.42
2019-01-04T03:53:52.485Z,1030.45
2019-01-04T03:54:52.455Z,1030.43
2019-01-04T03:55:52.427Z,1030.43
2019-01-04T03:56:52.398Z,1030.46
2019-01-04T03:57:52.370Z,1030.51
2019-01-04T03:58:52.342Z,1030.56
2019-01-04T03:59:52.336Z,1030.56
2019-01-04T04:00:52.288Z,1030.55
2019-01-04T04:01:52.260Z,1030.62
2019-01-04T04:02:52.232Z,1030.64
2019-01-04T04:03:52.205Z,1030.68
2019-01-04T04:04:52.197Z,1030.68
2019-01-04T04:05:52.152Z,1030.64
2019-01-04T04:06:52.122Z,1030.61
2019-01-04T04:07:52.099Z,1030.61
2019-01-04T04:08:52.069Z,1030.62
2019-01-04T04:09:52.041Z,1030.54
2019-01-04T04:10:52.011Z,1030.50
2019-01-04T04:11:51.998Z,1030.47
2019-01-04T04:12:51.956Z,1030.45
2019-01-04T04:13:51.936Z,1030.41
2019-01-04T04:14:51.902Z,1030.44
2019-01-04T04:15:51.875Z,1030.41
2019-01-04T04:16:51.848Z,1030.43
2019-01-04T04:17:51.820Z,1030.40
2019-01-04T04:18:51.792Z,1030.45
2019-01-04T04:19:51.778Z,1030.46
2019-01-04T04:20:51.737Z,1030.51
2019-01-04T04:21:51.709Z,1030.51
2019-01-04T04:22:51.686Z,1030.48
2019-01-04T04:23:51.656Z,1030.48
2019-01-04T04:24:51.627Z,1030.48
2019-01-04T04:25:51.600Z,1030.48
2019-01-04T04:26:51.571Z,1030.50
2019-01-04T04:27:51.547Z,1030.50
2019-01-04T04:28:51.518Z,1030.48
2019-01-04T04:29:51.493Z,1030.43
2019-01-04T04:30:51.464Z,1030.44
2019-01-04T04:31:51.437Z,1030.44
2019-01-04T04:32:51.416Z,1030.45
2019-01-04T04:33:51.384Z,1030.43
2019-01-04T04:34:51.886Z,1030.35
2019-01-04T04:35:51.325Z,1030.33
2019-01-04T04:36:51.366Z,1030.30
2019-01-04T04:37:51.272Z,1030.25
2019-01-04T04:38:51.256Z,1030.22
2019-01-04T04:39:51.218Z,1030.27
2019-01-04T04:40:51.196Z,1030.25
2019-01-04T04:41:51.161Z,1030.26
2019-01-04T04:42:51.138Z,1030.25
2019-01-04T04:43:51.105Z,1030.22
2019-01-04T04:44:51.081Z,1030.23
2019-01-04T04:45:51.051Z,1030.22
2019-01-04T04:46:51.028Z,1030.17
2019-01-04T04:47:50.995Z,1030.16
2019-01-04T04:48:50.969Z,1030.22
2019-01-04T04:49:50.945Z,1030.26
2019-01-04T04:50:50.915Z,1030.24
2019-01-04T04:51:50.887Z,1030.24
2019-01-04T04:52:50.859Z,1030.26
2019-01-04T04:53:50.840Z,1030.30
2019-01-04T04:54:50.806Z,1030.33
2019-01-04T04:55:50.784Z,1030.28
2019-01-04T04:56:50.749Z,1030.30
2019-01-04T04:57:50.721Z,1030.33
2019-01-04T04:58:50.695Z,1030.35
2019-01-04T04:59:50.670Z,1030.37
2019-01-04T05:00:50.642Z,1030.39
2019-01-04T05:01:50.613Z,1030.42
2019-01-04T05:02:50.585Z,1030.40
2019-01-04T05:03:50.558Z,1030.42
2019-01-04T05:04:50.529Z,1030.40
2019-01-04T05:05:50.503Z,1030.36
2019-01-04T05:06:50.477Z,1030.39
2019-01-04T05:07:50.449Z,1030.38
2019-01-04T05:08:50.470Z,1030.39
2019-01-04T05:09:50.395Z,1030.40
2019-01-04T05:10:50.374Z,1030.42
2019-01-04T05:11:50.341Z,1030.39
2019-01-04T05:12:50.310Z,1030.38
2019-01-04T05:13:50.283Z,1030.39
2019-01-04T05:14:50.260Z,1030.39
2019-01-04T05:15:50.260Z,1030.37
2019-01-04T05:16:50.210Z,1030.36
2019-01-04T05:17:50.175Z,1030.34
2019-01-04T05:18:50.147Z,1030.30
2019-01-04T05:19:50.119Z,1030.25
2019-01-04T05:20:50.092Z,1030.23
2019-01-04T05:21:50.067Z,1030.21
2019-01-04T05:22:50.055Z,1030.17
2019-01-04T05:23:50.012Z,1030.16
2019-01-04T05:24:49.982Z,1030.17
2019-01-04T05:25:49.957Z,1030.13
2019-01-04T05:26:49.930Z,1030.19
2019-01-04T05:27:49.911Z,1030.17
2019-01-04T05:28:49.878Z,1030.12
2019-01-04T05:29:49.845Z,1030.09
2019-01-04T05:30:49.819Z,1030.08
2019-01-04T05:31:49.793Z,1030.08
2019-01-04T05:32:49.763Z,1030.02
2019-01-04T05:33:49.743Z,1030.00
2019-01-04T05:34:49.710Z,1029.96
2019-01-04T05:35:49.684Z,1029.92
2019-01-04T05:36:49.654Z,1029.88
2019-01-04T05:37:49.631Z,1029.87
2019-01-04T05:38:49.602Z,1029.86
2019-01-04T05:39:49.637Z,1029.87
2019-01-04T05:40:49.544Z,1029.94
2019-01-04T05:41:49.519Z,1029.98
2019-01-04T05:42:49.507Z,1029.98
2019-01-04T05:43:49.468Z,1029.97
2019-01-04T05:44:49.434Z,1029.94
2019-01-04T05:45:49.407Z,1029.96
2019-01-04T05:46:49.379Z,1029.92
2019-01-04T05:47:49.354Z,1029.87
2019-01-04T05:48:49.328Z,1029.89
2019-01-04T05:49:49.297Z,1029.90
2019-01-04T05:50:49.273Z,1029.90
2019-01-04T05:51:49.244Z,1029.85
2019-01-04T05:52:49.215Z,1029.86
2019-01-04T05:53:49.190Z,1029.89
2019-01-04T05:54:49.163Z,1029.91
2019-01-04T05:55:49.131Z,1029.93
2019-01-04T05:56:49.101Z,1029.94
2019-01-04T05:57:49.075Z,1029.96
2019-01-04T05:58:49.048Z,1029.94
2019-01-04T05:59:49.019Z,1029.90
2019-01-04T06:00:48.994Z,1029.93
2019-01-04T06:01:48.963Z,1029.88
2019-01-04T06:02:48.935Z,1029.88
2019-01-04T06:03:48.910Z,1029.85
2019-01-04T06:04:48.881Z,1029.90
2019-01-04T06:05:48.853Z,1029.98
2019-01-04T06:06:48.824Z,1030.04
2019-01-04T06:07:48.798Z,1030.04
2019-01-04T06:08:48.771Z,1030.00
2019-01-04T06:09:48.742Z,1029.95
2019-01-04T06:10:48.720Z,1029.94
2019-01-04T06:11:48.686Z,1029.90
2019-01-04T06:12:48.658Z,1029.94
2019-01-04T06:13:48.634Z,1029.95
2019-01-04T06:14:48.604Z,1029.95
2019-01-04T06:15:48.576Z,1029.98
2019-01-04T06:16:48.548Z,1029.95
2019-01-04T06:17:48.521Z,1029.97
2019-01-04T06:18:48.491Z,1029.98
2019-01-04T06:19:48.466Z,1030.02
2019-01-04T06:20:48.439Z,1030.00
2019-01-04T06:21:48.409Z,1029.99
2019-01-04T06:22:48.384Z,1029.96
2019-01-04T06:23:48.354Z,1029.97
2019-01-04T06:24:48.325Z,1029.93
2019-01-04T06:25:48.305Z,1029.94
2019-01-04T06:26:48.272Z,1029.93
2019-01-04T06:27:48.248Z,1029.91
2019-01-04T06:28:48.217Z,1029.89
2019-01-04T06:29:48.190Z,1029.91
2019-01-04T06:30:48.160Z,1029.94
2019-01-04T06:31:48.134Z,1029.97
2019-01-04T06:32:48.106Z,1029.97
2019-01-04T06:33:48.077Z,1029.98
2019-01-04T06:34:48.050Z,1030.05
2019-01-04T06:35:48.030Z,1030.03
2019-01-04T06:36:48.012Z,1030.00
2019-01-04T06:37:47.968Z,1030.01
2019-01-04T06:38:47.939Z,1030.03
2019-01-04T06:39:47.912Z,1030.01
2019-01-04T06:40:47.892Z,1030.04
2019-01-04T06:41:47.856Z,1030.01
2019-01-04T06:42:47.831Z,1030.01
2019-01-04T06:43:47.805Z,1030.05
2019-01-04T06:44:47.774Z,1030.03
2019-01-04T06:45:47.748Z,1030.01
2019-01-04T06:46:47.719Z,1029.93
2019-01-04T06:47:47.697Z,1029.93
2019-01-04T06:48:47.666Z,1029.91
2019-01-04T06:49:47.639Z,1029.92
2019-01-04T06:50:47.614Z,1029.93
2019-01-04T06:51:47.589Z,1029.90
2019-01-04T06:52:47.556Z,1029.89
2019-01-04T06:53:47.539Z,1029.92
2019-01-04T06:54:47.502Z,1029.96
2019-01-04T06:55:47.476Z,1029.96
2019-01-04T06:56:47.443Z,1029.95
2019-01-04T06:57:47.428Z,1029.95
2019-01-04T06:58:47.389Z,1029.98
2019-01-04T06:59:47.362Z,1029.97
2019-01-04T07:00:47.365Z,1029.97
2019-01-04T07:01:47.305Z,1029.93
2019-01-04T07:02:47.284Z,1029.99
2019-01-04T07:03:47.253Z,1030.03
2019-01-04T07:04:47.247Z,1030.04
2019-01-04T07:05:47.196Z,1030.04
2019-01-04T07:06:47.172Z,1030.10
2019-01-04T07:07:47.144Z,1030.18
2019-01-04T07:08:47.118Z,1030.17
2019-01-04T07:09:47.085Z,1030.16
2019-01-04T07:10:47.058Z,1030.14
2019-01-04T07:11:47.034Z,1030.14
2019-01-04T07:12:47.009Z,1030.17
2019-01-04T07:13:46.978Z,1030.13
2019-01-04T07:14:46.955Z,1030.03
2019-01-04T07:15:46.944Z,1030.03
2019-01-04T07:16:46.894Z,1030.02
2019-01-04T07:17:47.303Z,1030.06
2019-01-04T07:18:46.841Z,1030.07
2019-01-04T07:19:46.852Z,1030.04
2019-01-04T07:20:46.787Z,1030.01
2019-01-04T07:21:46.759Z,1030.02
2019-01-04T07:22:46.728Z,1030.03
2019-01-04T07:23:46.702Z,1029.98
2019-01-04T07:24:46.677Z,1029.99
2019-01-04T07:25:46.648Z,1029.93
2019-01-04T07:26:46.624Z,1029.97
2019-01-04T07:27:46.592Z,1029.94
2019-01-04T07:28:46.564Z,1029.91
2019-01-04T07:29:46.538Z,1029.93
2019-01-04T07:30:46.512Z,1029.97
2019-01-04T07:31:46.483Z,1029.98
2019-01-04T07:32:46.459Z,1030.03
2019-01-04T07:33:46.430Z,1030.01
2019-01-04T07:34:46.400Z,1030.08
2019-01-04T07:35:46.384Z,1030.08
2019-01-04T07:36:46.346Z,1030.10
2019-01-04T07:37:46.316Z,1030.12
2019-01-04T07:38:46.289Z,1030.14
2019-01-04T07:39:46.264Z,1030.11
2019-01-04T07:40:46.241Z,1030.10
2019-01-04T07:41:46.231Z,1030.10
2019-01-04T07:42:46.181Z,1030.12
2019-01-04T07:43:46.163Z,1030.15
2019-01-04T07:44:46.128Z,1030.13
2019-01-04T07:45:46.099Z,1030.11
2019-01-04T07:46:46.074Z,1030.15
2019-01-04T07:47:46.047Z,1030.13
2019-01-04T07:48:46.017Z,1030.15
2019-01-04T07:49:45.995Z,1030.08
2019-01-04T07:50:45.960Z,1030.09
2019-01-04T07:51:45.938Z,1030.06
2019-01-04T07:52:45.908Z,1030.01
2019-01-04T07:53:45.881Z,1029.97
2019-01-04T07:54:45.852Z,1029.98
2019-01-04T07:55:45.826Z,1029.95
2019-01-04T07:56:45.817Z,1029.96
2019-01-04T07:57:45.770Z,1029.96
2019-01-04T07:58:45.746Z,1029.96
2019-01-04T07:59:45.720Z,1029.92
2019-01-04T08:00:45.691Z,1029.93
2019-01-04T08:01:45.662Z,1029.87
2019-01-04T08:02:45.635Z,1029.92
2019-01-04T08:03:45.612Z,1029.89
2019-01-04T08:04:45.581Z,1029.94
2019-01-04T08:05:45.556Z,1029.93
2019-01-04T08:06:45.527Z,1029.92
2019-01-04T08:07:45.501Z,1029.93
2019-01-04T08:08:45.480Z,1029.95
2019-01-04T08:09:45.446Z,1029.93
2019-01-04T08:10:45.421Z,1029.95
2019-01-04T08:11:45.442Z,1029.93
2019-01-04T08:12:45.366Z,1029.96
2019-01-04T08:13:45.340Z,1029.95
2019-01-04T08:14:45.313Z,1029.96
2019-01-04T08:15:45.287Z,1029.93
2019-01-04T08:16:45.261Z,1029.94
2019-01-04T08:17:45.235Z,1029.89
2019-01-04T08:18:45.203Z,1029.88
2019-01-04T08:19:45.180Z,1029.84
2019-01-04T08:20:45.157Z,1029.82
2019-01-04T08:21:45.127Z,1029.85
2019-01-04T08:22:45.098Z,1029.83
2019-01-04T08:23:45.073Z,1029.86
2019-01-04T08:24:45.043Z,1029.91
2019-01-04T08:25:45.027Z,1029.89
2019-01-04T08:26:44.993Z,1029.88
2019-01-04T08:27:44.966Z,1029.90
2019-01-04T08:28:44.940Z,1029.87
2019-01-04T08:29:44.912Z,1029.91
2019-01-04T08:30:44.888Z,1029.85
2019-01-04T08:31:44.864Z,1029.84
2019-01-04T08:32:44.833Z,1029.79
2019-01-04T08:33:44.809Z,1029.85
2019-01-04T08:34:44.782Z,1029.83
2019-01-04T08:35:44.760Z,1029.90
2019-01-04T08:36:44.729Z,1029.92
2019-01-04T08:37:44.701Z,1029.87
2019-01-04T08:38:44.675Z,1029.83
2019-01-04T08:39:44.650Z,1029.85
2019-01-04T08:40:44.623Z,1029.83
2019-01-04T08:41:44.596Z,1029.86
2019-01-04T08:42:44.574Z,1029.89
2019-01-04T08:43:44.543Z,1029.84
2019-01-04T08:44:44.516Z,1029.82
2019-01-04T08:45:44.489Z,1029.82
2019-01-04T08:46:44.465Z,1029.86
2019-01-04T08:47:44.439Z,1029.88
2019-01-04T08:48:44.416Z,1029.85
2019-01-04T08:49:44.387Z,1029.88
2019-01-04T08:50:44.360Z,1029.90
2019-01-04T08:51:44.334Z,1029.89
2019-01-04T08:52:44.323Z,1029.87
2019-01-04T08:53:44.283Z,1029.87
2019-01-04T08:54:44.258Z,1029.86
2019-01-04T08:55:44.230Z,1029.83
2019-01-04T08:56:44.209Z,1029.79
2019-01-04T08:57:44.176Z,1029.79
2019-01-04T08:58:44.160Z,1029.75
2019-01-04T08:59:45.248Z,1029.72
2019-01-04T09:00:44.395Z,1029.71
2019-01-04T09:01:44.093Z,1029.71
2019-01-04T09:02:44.049Z,1029.70
2019-01-04T09:03:44.022Z,1029.71
2019-01-04T09:04:43.998Z,1029.68
2019-01-04T09:05:43.970Z,1029.64
2019-01-04T09:06:44.062Z,1029.66
2019-01-04T09:07:43.924Z,1029.67
2019-01-04T09:08:44.153Z,1029.64
2019-01-04T09:09:43.868Z,1029.64
2019-01-04T09:10:43.841Z,1029.68
2019-01-04T09:11:43.815Z,1029.67
2019-01-04T09:12:43.789Z,1029.67
2019-01-04T09:13:43.765Z,1029.64
2019-01-04T09:14:43.761Z,1029.62
2019-01-04T09:15:43.719Z,1029.62
2019-01-04T09:16:43.686Z,1029.63
2019-01-04T09:17:43.659Z,1029.59
2019-01-04T09:18:43.634Z,1029.57
2019-01-04T09:19:43.609Z,1029.57
2019-01-04T09:20:43.584Z,1029.61
2019-01-04T09:21:43.625Z,1029.56
2019-01-04T09:22:43.530Z,1029.60
2019-01-04T09:23:43.505Z,1029.55
2019-01-04T09:24:43.477Z,1029.54
2019-01-04T09:25:43.453Z,1029.53
2019-01-04T09:26:43.432Z,1029.53
2019-01-04T09:27:43.400Z,1029.53
2019-01-04T09:28:43.375Z,1029.52
2019-01-04T09:29:43.350Z,1029.52
2019-01-04T09:30:43.324Z,1029.49
2019-01-04T09:31:43.305Z,1029.46
2019-01-04T09:32:43.273Z,1029.42
2019-01-04T09:33:43.248Z,1029.42
2019-01-04T09:34:43.222Z,1029.36
2019-01-04T09:35:43.194Z,1029.36
2019-01-04T09:36:43.184Z,1029.40
2019-01-04T09:37:43.149Z,1029.38
2019-01-04T09:38:43.122Z,1029.38
2019-01-04T09:39:43.091Z,1029.41
2019-01-04T09:40:43.069Z,1029.40
2019-01-04T09:41:43.042Z,1029.40
2019-01-04T09:42:43.035Z,1029.38
2019-01-04T09:43:42.990Z,1029.37
2019-01-04T09:44:42.964Z,1029.34
2019-01-04T09:45:42.939Z,1029.36
2019-01-04T09:46:42.911Z,1029.33
2019-01-04T09:47:42.892Z,1029.32
2019-01-04T09:48:42.862Z,1029.36
2019-01-04T09:49:42.890Z,1029.34
2019-01-04T09:50:42.811Z,1029.33
2019-01-04T09:51:42.789Z,1029.32
2019-01-04T09:52:42.759Z,1029.31
2019-01-04T09:53:42.737Z,1029.24
2019-01-04T09:54:42.859Z,1029.24
2019-01-04T09:55:42.760Z,1029.26
2019-01-04T09:56:42.667Z,1029.25
2019-01-04T09:57:42.633Z,1029.22
2019-01-04T09:58:42.609Z,1029.19
2019-01-04T09:59:42.583Z,1029.18
2019-01-04T10:00:42.557Z,1029.11
2019-01-04T10:01:42.533Z,1029.14
2019-01-04T10:02:42.513Z,1029.11
2019-01-04T10:03:42.481Z,1029.10
2019-01-04T10:04:42.457Z,1029.12
2019-01-04T10:05:42.434Z,1029.07
2019-01-04T10:06:42.408Z,1029.11
2019-01-04T10:07:42.383Z,1029.08
2019-01-04T10:08:45.031Z,1029.09
2019-01-04T10:09:42.329Z,1029.00
2019-01-04T10:10:42.313Z,1029.04
2019-01-04T10:11:42.277Z,1029.07
2019-01-04T10:12:42.251Z,1029.07
2019-01-04T10:13:42.271Z,1029.07
2019-01-04T10:14:42.202Z,1029.07
2019-01-04T10:15:42.175Z,1029.06
2019-01-04T10:16:42.151Z,1029.07
2019-01-04T10:17:42.130Z,1029.05
2019-01-04T10:18:42.099Z,1028.98
2019-01-04T10:19:42.073Z,1029.03
2019-01-04T10:20:42.046Z,1029.01
2019-01-04T10:21:42.022Z,1028.97
2019-01-04T10:22:41.994Z,1028.90
2019-01-04T10:23:41.978Z,1028.93
2019-01-04T10:24:41.949Z,1028.91
2019-01-04T10:25:41.919Z,1028.90
2019-01-04T10:26:41.896Z,1028.91
2019-01-04T10:27:41.875Z,1028.94
2019-01-04T10:28:41.841Z,1028.91
2019-01-04T10:29:41.815Z,1028.93
2019-01-04T10:30:41.791Z,1028.86
2019-01-04T10:31:41.762Z,1028.85
2019-01-04T10:32:41.776Z,1028.82
2019-01-04T10:33:41.716Z,1028.87
2019-01-04T10:34:41.685Z,1028.88
2019-01-04T10:35:41.662Z,1028.86
2019-01-04T10:36:41.635Z,1028.80
2019-01-04T10:37:41.613Z,1028.81
2019-01-04T10:38:41.586Z,1028.81
2019-01-04T10:39:41.559Z,1028.78
2019-01-04T10:40:41.532Z,1028.74
2019-01-04T10:41:41.509Z,1028.77
2019-01-04T10:42:41.483Z,1028.74
2019-01-04T10:43:41.458Z,1028.73
2019-01-04T10:44:41.513Z,1028.77
2019-01-04T10:45:41.413Z,1028.73
2019-01-04T10:46:41.383Z,1028.70
2019-01-04T10:47:41.356Z,1028.67
2019-01-04T10:48:41.328Z,1028.68
2019-01-04T10:49:41.304Z,1028.67
2019-01-04T10:50:41.277Z,1028.65
2019-01-04T10:51:41.251Z,1028.63
2019-01-04T10:52:41.244Z,1028.59
2019-01-04T10:53:41.200Z,1028.60
2019-01-04T10:54:41.173Z,1028.60
2019-01-04T10:55:41.247Z,1028.59
2019-01-04T10:56:41.123Z,1028.55
2019-01-04T10:57:41.099Z,1028.51
2019-01-04T10:58:41.070Z,1028.49
2019-01-04T10:59:41.046Z,1028.46
2019-01-04T11:00:41.020Z,1028.51
2019-01-04T11:01:41.001Z,1028.48
2019-01-04T11:02:40.970Z,1028.44
2019-01-04T11:03:40.943Z,1028.41
2019-01-04T11:04:40.916Z,1028.43
2019-01-04T11:05:40.895Z,1028.42
2019-01-04T11:06:40.867Z,1028.42
2019-01-04T11:07:40.841Z,1028.39
2019-01-04T11:08:40.925Z,1028.37
2019-01-04T11:09:40.824Z,1028.41
2019-01-04T11:10:40.763Z,1028.37
2019-01-04T11:11:40.739Z,1028.38
2019-01-04T11:12:40.711Z,1028.40
2019-01-04T11:13:40.720Z,1028.43
2019-01-04T11:14:40.662Z,1028.46
2019-01-04T11:15:40.636Z,1028.42
2019-01-04T11:16:40.610Z,1028.36
2019-01-04T11:17:40.584Z,1028.35
2019-01-04T11:18:40.556Z,1028.30
2019-01-04T11:19:40.558Z,1028.26
2019-01-04T11:20:40.515Z,1028.26
2019-01-04T11:21:40.478Z,1028.26
2019-01-04T11:22:40.452Z,1028.15
2019-01-04T11:23:40.443Z,1028.14
2019-01-04T11:24:40.449Z,1028.11
2019-01-04T11:25:40.411Z,1028.08
2019-01-04T11:26:40.354Z,1028.09
2019-01-04T11:27:40.327Z,1028.08
2019-01-04T11:28:40.298Z,1028.01
2019-01-04T11:29:40.273Z,1028.01
2019-01-04T11:30:40.250Z,1027.96
2019-01-04T11:31:40.224Z,1027.96
2019-01-04T11:32:40.237Z,1027.89
2019-01-04T11:33:40.175Z,1027.85
2019-01-04T11:34:40.145Z,1027.85
2019-01-04T11:35:40.121Z,1027.87
2019-01-04T11:36:40.095Z,1027.82
2019-01-04T11:37:40.071Z,1027.85
2019-01-04T11:38:40.042Z,1027.90
2019-01-04T11:39:40.019Z,1027.85
2019-01-04T11:40:39.990Z,1027.86
2019-01-04T11:41:39.965Z,1027.86
2019-01-04T11:42:39.938Z,1027.84
2019-01-04T11:43:39.920Z,1027.82
2019-01-04T11:44:39.885Z,1027.79
2019-01-04T11:45:39.865Z,1027.79
2019-01-04T11:46:39.841Z,1027.79
2019-01-04T11:47:39.810Z,1027.85
2019-01-04T11:48:39.783Z,1027.88
2019-01-04T11:49:39.758Z,1027.96
2019-01-04T11:50:39.736Z,1027.97
2019-01-04T11:51:39.706Z,1028.04
2019-01-04T11:52:39.680Z,1028.09
2019-01-04T11:53:39.655Z,1028.05
2019-01-04T11:54:39.632Z,1028.10
2019-01-04T11:55:39.607Z,1028.10
2019-01-04T11:56:39.577Z,1028.05
2019-01-04T11:57:40.746Z,1028.08
2019-01-04T11:58:39.538Z,1028.08
2019-01-04T11:59:39.671Z,1028.01
2019-01-04T12:00:39.472Z,1027.97
2019-01-04T12:01:39.448Z,1027.88
2019-01-04T12:02:39.421Z,1027.92
2019-01-04T12:03:39.396Z,1027.84
2019-01-04T12:04:39.370Z,1027.78
2019-01-04T12:05:39.352Z,1027.76